sensor_id;sensor_type;location;lat;lon;timestamp;P1;durP1;ratioP1;P2;durP2;ratioP2
45065;SDS011;30830;53.704;10.004;2022-11-15T00:00:25;32.28;;;21.15;;
45065;SDS011;30830;53.704;10.004;2022-11-15T00:02:52;34.55;;;20.67;;
45065;SDS011;30830;53.704;10.004;2022-11-15T00:05:18;28.42;;;19.88;;
45065;SDS011;30830;53.704;10.004;2022-11-15T00:07:43;31.10;;;20.52;;
45065;SDS011;30830;53.704;10.004;2022-11-15T00:10:09;32.40;;;20.85;;
45065;SDS011;30830;53.704;10.004;2022-11-15T00:12:34;31.30;;;21.77;;
45065;SDS011;30830;53.704;10.004;2022-11-15T00:15:00;32.13;;;21.88;;
45065;SDS011;30830;53.704;10.004;2022-11-15T00:17:25;34.30;;;22.45;;
45065;SDS011;30830;53.704;10.004;2022-11-15T00:19:51;31.52;;;22.20;;
45065;SDS011;30830;53.704;10.004;2022-11-15T00:22:16;33.50;;;22.42;;
45065;SDS011;30830;53.704;10.004;2022-11-15T00:24:42;34.75;;;20.45;;
45065;SDS011;30830;53.704;10.004;2022-11-15T00:27:08;31.77;;;21.95;;
45065;SDS011;30830;53.704;10.004;2022-11-15T00:29:33;28.20;;;20.30;;
45065;SDS011;30830;53.704;10.004;2022-11-15T00:31:59;32.95;;;20.98;;
45065;SDS011;30830;53.704;10.004;2022-11-15T00:34:24;34.17;;;20.90;;
45065;SDS011;30830;53.704;10.004;2022-11-15T00:36:50;29.92;;;20.85;;
45065;SDS011;30830;53.704;10.004;2022-11-15T00:39:15;32.17;;;21.63;;
45065;SDS011;30830;53.704;10.004;2022-11-15T00:41:41;32.65;;;21.02;;
45065;SDS011;30830;53.704;10.004;2022-11-15T00:44:07;32.38;;;21.00;;
45065;SDS011;30830;53.704;10.004;2022-11-15T00:46:32;29.00;;;20.33;;
45065;SDS011;30830;53.704;10.004;2022-11-15T00:48:58;30.48;;;20.80;;
45065;SDS011;30830;53.704;10.004;2022-11-15T00:51:23;32.47;;;21.23;;
45065;SDS011;30830;53.704;10.004;2022-11-15T00:53:49;29.15;;;20.35;;
45065;SDS011;30830;53.704;10.004;2022-11-15T00:56:14;30.58;;;21.58;;
45065;SDS011;30830;53.704;10.004;2022-11-15T00:58:40;30.00;;;22.08;;
45065;SDS011;30830;53.704;10.004;2022-11-15T01:01:10;29.75;;;21.85;;
45065;SDS011;30830;53.704;10.004;2022-11-15T01:03:37;31.42;;;20.73;;
45065;SDS011;30830;53.704;10.004;2022-11-15T01:06:04;28.60;;;19.67;;
45065;SDS011;30830;53.704;10.004;2022-11-15T01:08:30;36.20;;;22.77;;
45065;SDS011;30830;53.704;10.004;2022-11-15T01:11:00;32.97;;;22.27;;
45065;SDS011;30830;53.704;10.004;2022-11-15T01:13:28;38.25;;;22.77;;
45065;SDS011;30830;53.704;10.004;2022-11-15T01:15:55;31.25;;;21.75;;
45065;SDS011;30830;53.704;10.004;2022-11-15T01:18:21;34.60;;;21.52;;
45065;SDS011;30830;53.704;10.004;2022-11-15T01:20:46;31.88;;;20.90;;
45065;SDS011;30830;53.704;10.004;2022-11-15T01:23:12;29.58;;;21.88;;
45065;SDS011;30830;53.704;10.004;2022-11-15T01:25:37;29.73;;;20.02;;
45065;SDS011;30830;53.704;10.004;2022-11-15T01:28:03;29.48;;;20.13;;
45065;SDS011;30830;53.704;10.004;2022-11-15T01:30:28;32.88;;;20.38;;
45065;SDS011;30830;53.704;10.004;2022-11-15T01:32:54;31.45;;;21.23;;
45065;SDS011;30830;53.704;10.004;2022-11-15T01:35:19;27.58;;;18.48;;
45065;SDS011;30830;53.704;10.004;2022-11-15T01:37:45;30.95;;;20.35;;
45065;SDS011;30830;53.704;10.004;2022-11-15T01:40:11;29.98;;;19.92;;
45065;SDS011;30830;53.704;10.004;2022-11-15T01:42:37;32.00;;;20.80;;
45065;SDS011;30830;53.704;10.004;2022-11-15T01:45:02;29.23;;;19.48;;
45065;SDS011;30830;53.704;10.004;2022-11-15T01:47:29;27.80;;;19.38;;
45065;SDS011;30830;53.704;10.004;2022-11-15T01:52:33;30.88;;;20.63;;
45065;SDS011;30830;53.704;10.004;2022-11-15T01:55:05;32.60;;;19.77;;
45065;SDS011;30830;53.704;10.004;2022-11-15T01:57:34;30.27;;;20.70;;
45065;SDS011;30830;53.704;10.004;2022-11-15T02:00:00;28.60;;;20.23;;
45065;SDS011;30830;53.704;10.004;2022-11-15T02:02:28;31.60;;;20.23;;
45065;SDS011;30830;53.704;10.004;2022-11-15T02:04:54;27.40;;;19.98;;
45065;SDS011;30830;53.704;10.004;2022-11-15T02:07:20;30.60;;;20.13;;
45065;SDS011;30830;53.704;10.004;2022-11-15T02:09:47;32.35;;;20.55;;
45065;SDS011;30830;53.704;10.004;2022-11-15T02:12:15;27.88;;;20.58;;
45065;SDS011;30830;53.704;10.004;2022-11-15T02:14:44;29.95;;;19.95;;
45065;SDS011;30830;53.704;10.004;2022-11-15T02:31:23;28.63;;;19.08;;
45065;SDS011;30830;53.704;10.004;2022-11-15T02:34:11;25.15;;;18.58;;
45065;SDS011;30830;53.704;10.004;2022-11-15T02:42:33;28.35;;;19.30;;
45065;SDS011;30830;53.704;10.004;2022-11-15T02:45:24;32.50;;;20.00;;
45065;SDS011;30830;53.704;10.004;2022-11-15T02:48:03;29.75;;;19.83;;
45065;SDS011;30830;53.704;10.004;2022-11-15T02:50:30;25.98;;;17.27;;
45065;SDS011;30830;53.704;10.004;2022-11-15T02:52:58;28.80;;;18.80;;
45065;SDS011;30830;53.704;10.004;2022-11-15T02:57:52;25.67;;;17.40;;
45065;SDS011;30830;53.704;10.004;2022-11-15T03:01:15;28.27;;;18.90;;
45065;SDS011;30830;53.704;10.004;2022-11-15T03:04:17;25.70;;;18.13;;
45065;SDS011;30830;53.704;10.004;2022-11-15T03:12:47;27.58;;;19.17;;
45065;SDS011;30830;53.704;10.004;2022-11-15T03:15:21;27.70;;;19.35;;
45065;SDS011;30830;53.704;10.004;2022-11-15T03:18:16;31.45;;;19.95;;
45065;SDS011;30830;53.704;10.004;2022-11-15T03:20:47;28.52;;;18.15;;
45065;SDS011;30830;53.704;10.004;2022-11-15T03:23:14;25.23;;;17.75;;
45065;SDS011;30830;53.704;10.004;2022-11-15T03:25:43;27.25;;;17.83;;
45065;SDS011;30830;53.704;10.004;2022-11-15T03:28:18;29.52;;;18.77;;
45065;SDS011;30830;53.704;10.004;2022-11-15T03:30:50;26.85;;;18.35;;
45065;SDS011;30830;53.704;10.004;2022-11-15T03:33:18;28.75;;;18.83;;
45065;SDS011;30830;53.704;10.004;2022-11-15T03:35:46;28.83;;;18.15;;
45065;SDS011;30830;53.704;10.004;2022-11-15T03:38:21;28.60;;;18.48;;
45065;SDS011;30830;53.704;10.004;2022-11-15T03:49:28;31.27;;;18.55;;
45065;SDS011;30830;53.704;10.004;2022-11-15T03:51:57;25.67;;;18.38;;
45065;SDS011;30830;53.704;10.004;2022-11-15T03:54:24;26.25;;;18.55;;
45065;SDS011;30830;53.704;10.004;2022-11-15T03:56:50;29.17;;;17.52;;
45065;SDS011;30830;53.704;10.004;2022-11-15T03:59:16;27.08;;;18.40;;
45065;SDS011;30830;53.704;10.004;2022-11-15T04:01:41;27.63;;;18.92;;
45065;SDS011;30830;53.704;10.004;2022-11-15T04:04:07;26.33;;;18.15;;
45065;SDS011;30830;53.704;10.004;2022-11-15T04:06:32;28.05;;;18.15;;
45065;SDS011;30830;53.704;10.004;2022-11-15T04:08:58;29.20;;;18.92;;
45065;SDS011;30830;53.704;10.004;2022-11-15T04:11:24;26.77;;;18.30;;
45065;SDS011;30830;53.704;10.004;2022-11-15T04:13:49;25.08;;;17.35;;
45065;SDS011;30830;53.704;10.004;2022-11-15T04:16:15;24.83;;;17.83;;
45065;SDS011;30830;53.704;10.004;2022-11-15T04:18:40;27.15;;;18.42;;
45065;SDS011;30830;53.704;10.004;2022-11-15T04:21:07;27.35;;;17.85;;
45065;SDS011;30830;53.704;10.004;2022-11-15T04:24:02;26.97;;;17.73;;
45065;SDS011;30830;53.704;10.004;2022-11-15T04:26:37;26.58;;;17.63;;
45065;SDS011;30830;53.704;10.004;2022-11-15T04:29:02;22.75;;;17.23;;
45065;SDS011;30830;53.704;10.004;2022-11-15T04:31:47;25.73;;;16.27;;
45065;SDS011;30830;53.704;10.004;2022-11-15T04:34:12;22.83;;;16.27;;
45065;SDS011;30830;53.704;10.004;2022-11-15T04:36:38;24.13;;;16.83;;
45065;SDS011;30830;53.704;10.004;2022-11-15T04:39:22;21.42;;;16.50;;
45065;SDS011;30830;53.704;10.004;2022-11-15T04:41:47;24.73;;;16.13;;
45065;SDS011;30830;53.704;10.004;2022-11-15T04:44:13;22.90;;;16.20;;
45065;SDS011;30830;53.704;10.004;2022-11-15T04:46:38;24.60;;;16.75;;
45065;SDS011;30830;53.704;10.004;2022-11-15T04:49:04;22.27;;;16.95;;
45065;SDS011;30830;53.704;10.004;2022-11-15T04:51:29;29.85;;;19.83;;
45065;SDS011;30830;53.704;10.004;2022-11-15T04:53:55;23.58;;;16.05;;
45065;SDS011;30830;53.704;10.004;2022-11-15T04:56:20;23.00;;;16.45;;
45065;SDS011;30830;53.704;10.004;2022-11-15T04:58:48;28.23;;;18.10;;
45065;SDS011;30830;53.704;10.004;2022-11-15T05:01:14;26.65;;;17.55;;
45065;SDS011;30830;53.704;10.004;2022-11-15T05:03:40;24.80;;;17.48;;
45065;SDS011;30830;53.704;10.004;2022-11-15T05:06:25;25.75;;;16.33;;
45065;SDS011;30830;53.704;10.004;2022-11-15T05:08:51;25.75;;;18.02;;
45065;SDS011;30830;53.704;10.004;2022-11-15T05:11:17;25.83;;;17.90;;
45065;SDS011;30830;53.704;10.004;2022-11-15T05:13:43;26.55;;;18.23;;
45065;SDS011;30830;53.704;10.004;2022-11-15T05:16:08;23.70;;;16.80;;
45065;SDS011;30830;53.704;10.004;2022-11-15T05:18:34;28.70;;;18.67;;
45065;SDS011;30830;53.704;10.004;2022-11-15T05:21:06;26.30;;;17.60;;
45065;SDS011;30830;53.704;10.004;2022-11-15T05:23:34;28.73;;;18.23;;
45065;SDS011;30830;53.704;10.004;2022-11-15T05:26:00;29.13;;;18.83;;
45065;SDS011;30830;53.704;10.004;2022-11-15T05:28:27;30.02;;;18.10;;
45065;SDS011;30830;53.704;10.004;2022-11-15T05:30:53;25.38;;;17.92;;
45065;SDS011;30830;53.704;10.004;2022-11-15T05:33:26;30.55;;;17.58;;
45065;SDS011;30830;53.704;10.004;2022-11-15T05:35:54;29.90;;;19.08;;
45065;SDS011;30830;53.704;10.004;2022-11-15T05:38:25;30.15;;;18.58;;
45065;SDS011;30830;53.704;10.004;2022-11-15T05:40:51;26.90;;;17.10;;
45065;SDS011;30830;53.704;10.004;2022-11-15T05:43:16;28.05;;;18.02;;
45065;SDS011;30830;53.704;10.004;2022-11-15T05:45:42;24.20;;;17.17;;
45065;SDS011;30830;53.704;10.004;2022-11-15T05:48:08;27.83;;;18.80;;
45065;SDS011;30830;53.704;10.004;2022-11-15T05:50:36;27.17;;;17.75;;
45065;SDS011;30830;53.704;10.004;2022-11-15T05:53:03;24.83;;;17.88;;
45065;SDS011;30830;53.704;10.004;2022-11-15T05:55:30;30.30;;;19.33;;
45065;SDS011;30830;53.704;10.004;2022-11-15T05:57:56;24.48;;;17.27;;
45065;SDS011;30830;53.704;10.004;2022-11-15T06:00:22;25.20;;;17.23;;
45065;SDS011;30830;53.704;10.004;2022-11-15T06:02:48;28.17;;;18.17;;
45065;SDS011;30830;53.704;10.004;2022-11-15T06:05:13;26.00;;;17.40;;
45065;SDS011;30830;53.704;10.004;2022-11-15T06:07:39;24.50;;;16.83;;
45065;SDS011;30830;53.704;10.004;2022-11-15T06:10:05;30.65;;;19.13;;
45065;SDS011;30830;53.704;10.004;2022-11-15T06:12:31;25.40;;;17.35;;
45065;SDS011;30830;53.704;10.004;2022-11-15T06:14:56;24.92;;;17.20;;
45065;SDS011;30830;53.704;10.004;2022-11-15T06:17:22;24.10;;;17.17;;
45065;SDS011;30830;53.704;10.004;2022-11-15T06:19:47;25.80;;;16.33;;
45065;SDS011;30830;53.704;10.004;2022-11-15T06:22:13;26.38;;;17.23;;
45065;SDS011;30830;53.704;10.004;2022-11-15T06:24:38;22.17;;;16.02;;
45065;SDS011;30830;53.704;10.004;2022-11-15T06:27:04;23.58;;;16.33;;
45065;SDS011;30830;53.704;10.004;2022-11-15T06:29:30;25.52;;;16.85;;
45065;SDS011;30830;53.704;10.004;2022-11-15T06:31:55;28.33;;;17.45;;
45065;SDS011;30830;53.704;10.004;2022-11-15T06:34:21;24.67;;;16.98;;
45065;SDS011;30830;53.704;10.004;2022-11-15T06:36:46;23.25;;;16.55;;
45065;SDS011;30830;53.704;10.004;2022-11-15T06:39:12;27.13;;;18.10;;
45065;SDS011;30830;53.704;10.004;2022-11-15T06:41:37;26.23;;;17.23;;
45065;SDS011;30830;53.704;10.004;2022-11-15T06:44:03;27.75;;;17.13;;
45065;SDS011;30830;53.704;10.004;2022-11-15T06:46:28;24.55;;;16.17;;
45065;SDS011;30830;53.704;10.004;2022-11-15T06:48:54;23.27;;;16.33;;
45065;SDS011;30830;53.704;10.004;2022-11-15T06:51:19;25.42;;;16.58;;
45065;SDS011;30830;53.704;10.004;2022-11-15T06:53:45;24.23;;;17.48;;
45065;SDS011;30830;53.704;10.004;2022-11-15T06:56:11;21.50;;;16.10;;
45065;SDS011;30830;53.704;10.004;2022-11-15T06:58:37;25.05;;;16.98;;
45065;SDS011;30830;53.704;10.004;2022-11-15T07:01:07;24.52;;;16.20;;
45065;SDS011;30830;53.704;10.004;2022-11-15T07:03:35;24.75;;;16.98;;
45065;SDS011;30830;53.704;10.004;2022-11-15T07:06:02;22.52;;;15.75;;
45065;SDS011;30830;53.704;10.004;2022-11-15T07:08:28;22.40;;;15.85;;
45065;SDS011;30830;53.704;10.004;2022-11-15T07:10:54;24.10;;;16.52;;
45065;SDS011;30830;53.704;10.004;2022-11-15T07:13:24;24.77;;;16.38;;
45065;SDS011;30830;53.704;10.004;2022-11-15T07:15:50;23.27;;;16.15;;
45065;SDS011;30830;53.704;10.004;2022-11-15T07:18:16;23.02;;;15.77;;
45065;SDS011;30830;53.704;10.004;2022-11-15T07:20:41;20.98;;;16.67;;
45065;SDS011;30830;53.704;10.004;2022-11-15T07:23:07;25.63;;;17.70;;
45065;SDS011;30830;53.704;10.004;2022-11-15T07:25:33;23.73;;;16.42;;
45065;SDS011;30830;53.704;10.004;2022-11-15T07:27:59;23.10;;;17.40;;
45065;SDS011;30830;53.704;10.004;2022-11-15T07:30:25;24.33;;;16.85;;
45065;SDS011;30830;53.704;10.004;2022-11-15T07:32:52;23.70;;;17.17;;
45065;SDS011;30830;53.704;10.004;2022-11-15T07:35:22;25.08;;;17.05;;
45065;SDS011;30830;53.704;10.004;2022-11-15T07:37:58;23.08;;;16.48;;
45065;SDS011;30830;53.704;10.004;2022-11-15T07:40:29;24.05;;;15.98;;
45065;SDS011;30830;53.704;10.004;2022-11-15T07:43:00;20.60;;;15.90;;
45065;SDS011;30830;53.704;10.004;2022-11-15T07:45:25;24.77;;;15.52;;
45065;SDS011;30830;53.704;10.004;2022-11-15T07:47:51;22.02;;;15.15;;
45065;SDS011;30830;53.704;10.004;2022-11-15T07:50:17;22.58;;;16.25;;
45065;SDS011;30830;53.704;10.004;2022-11-15T07:52:43;23.33;;;15.77;;
45065;SDS011;30830;53.704;10.004;2022-11-15T07:55:09;25.33;;;16.55;;
45065;SDS011;30830;53.704;10.004;2022-11-15T07:57:35;23.55;;;15.45;;
45065;SDS011;30830;53.704;10.004;2022-11-15T08:00:02;21.50;;;15.82;;
45065;SDS011;30830;53.704;10.004;2022-11-15T08:02:29;23.08;;;16.42;;
45065;SDS011;30830;53.704;10.004;2022-11-15T08:04:54;28.25;;;18.25;;
45065;SDS011;30830;53.704;10.004;2022-11-15T08:07:20;28.55;;;18.30;;
45065;SDS011;30830;53.704;10.004;2022-11-15T08:09:45;26.58;;;16.70;;
45065;SDS011;30830;53.704;10.004;2022-11-15T08:12:11;29.75;;;17.10;;
45065;SDS011;30830;53.704;10.004;2022-11-15T08:14:36;21.98;;;17.00;;
45065;SDS011;30830;53.704;10.004;2022-11-15T08:17:03;20.80;;;14.90;;
45065;SDS011;30830;53.704;10.004;2022-11-15T08:19:29;24.48;;;16.38;;
45065;SDS011;30830;53.704;10.004;2022-11-15T08:21:54;26.58;;;16.90;;
45065;SDS011;30830;53.704;10.004;2022-11-15T08:24:20;25.85;;;16.90;;
45065;SDS011;30830;53.704;10.004;2022-11-15T08:26:45;19.88;;;14.45;;
45065;SDS011;30830;53.704;10.004;2022-11-15T08:29:11;21.17;;;15.65;;
45065;SDS011;30830;53.704;10.004;2022-11-15T08:31:37;23.27;;;15.70;;
45065;SDS011;30830;53.704;10.004;2022-11-15T08:34:03;24.60;;;15.63;;
45065;SDS011;30830;53.704;10.004;2022-11-15T08:36:31;24.20;;;15.98;;
45065;SDS011;30830;53.704;10.004;2022-11-15T08:38:56;18.77;;;14.52;;
45065;SDS011;30830;53.704;10.004;2022-11-15T08:41:26;21.05;;;14.95;;
45065;SDS011;30830;53.704;10.004;2022-11-15T08:44:00;21.23;;;14.82;;
45065;SDS011;30830;53.704;10.004;2022-11-15T08:46:26;23.42;;;15.23;;
45065;SDS011;30830;53.704;10.004;2022-11-15T08:48:52;19.17;;;14.52;;
45065;SDS011;30830;53.704;10.004;2022-11-15T08:51:17;21.27;;;14.18;;
45065;SDS011;30830;53.704;10.004;2022-11-15T08:53:43;19.17;;;14.90;;
45065;SDS011;30830;53.704;10.004;2022-11-15T08:56:10;21.73;;;15.15;;
45065;SDS011;30830;53.704;10.004;2022-11-15T08:58:37;20.20;;;14.23;;
45065;SDS011;30830;53.704;10.004;2022-11-15T09:01:03;20.70;;;14.50;;
45065;SDS011;30830;53.704;10.004;2022-11-15T09:03:29;21.63;;;15.27;;
45065;SDS011;30830;53.704;10.004;2022-11-15T09:05:56;23.40;;;14.93;;
45065;SDS011;30830;53.704;10.004;2022-11-15T09:08:23;18.95;;;14.70;;
45065;SDS011;30830;53.704;10.004;2022-11-15T09:10:49;23.10;;;14.32;;
45065;SDS011;30830;53.704;10.004;2022-11-15T09:13:14;18.55;;;14.38;;
45065;SDS011;30830;53.704;10.004;2022-11-15T09:15:40;21.90;;;14.32;;
45065;SDS011;30830;53.704;10.004;2022-11-15T09:18:06;17.38;;;13.07;;
45065;SDS011;30830;53.704;10.004;2022-11-15T09:20:31;16.35;;;12.48;;
45065;SDS011;30830;53.704;10.004;2022-11-15T09:23:00;19.55;;;13.65;;
45065;SDS011;30830;53.704;10.004;2022-11-15T09:25:27;19.58;;;13.32;;
45065;SDS011;30830;53.704;10.004;2022-11-15T09:27:53;19.27;;;13.38;;
45065;SDS011;30830;53.704;10.004;2022-11-15T09:30:18;20.98;;;13.48;;
45065;SDS011;30830;53.704;10.004;2022-11-15T09:32:44;17.83;;;14.40;;
45065;SDS011;30830;53.704;10.004;2022-11-15T09:35:09;20.25;;;13.38;;
45065;SDS011;30830;53.704;10.004;2022-11-15T09:37:35;19.10;;;13.05;;
45065;SDS011;30830;53.704;10.004;2022-11-15T09:40:01;17.80;;;13.13;;
45065;SDS011;30830;53.704;10.004;2022-11-15T09:42:44;17.00;;;13.60;;
45065;SDS011;30830;53.704;10.004;2022-11-15T09:45:34;19.08;;;13.90;;
45065;SDS011;30830;53.704;10.004;2022-11-15T09:48:24;18.95;;;13.63;;
45065;SDS011;30830;53.704;10.004;2022-11-15T09:50:58;23.98;;;12.93;;
45065;SDS011;30830;53.704;10.004;2022-11-15T09:53:26;22.50;;;13.95;;
45065;SDS011;30830;53.704;10.004;2022-11-15T09:56:14;17.33;;;12.35;;
45065;SDS011;30830;53.704;10.004;2022-11-15T10:01:23;19.38;;;12.93;;
45065;SDS011;30830;53.704;10.004;2022-11-15T10:04:19;18.90;;;13.77;;
45065;SDS011;30830;53.704;10.004;2022-11-15T10:06:51;19.75;;;14.18;;
45065;SDS011;30830;53.704;10.004;2022-11-15T10:09:28;17.20;;;12.85;;
45065;SDS011;30830;53.704;10.004;2022-11-15T10:11:58;16.40;;;12.75;;
45065;SDS011;30830;53.704;10.004;2022-11-15T10:14:25;17.23;;;12.68;;
45065;SDS011;30830;53.704;10.004;2022-11-15T10:24:52;18.13;;;12.45;;
45065;SDS011;30830;53.704;10.004;2022-11-15T10:27:31;15.57;;;11.48;;
45065;SDS011;30830;53.704;10.004;2022-11-15T10:29:57;15.57;;;12.45;;
45065;SDS011;30830;53.704;10.004;2022-11-15T10:32:22;17.55;;;12.80;;
45065;SDS011;30830;53.704;10.004;2022-11-15T10:34:49;16.52;;;12.93;;
45065;SDS011;30830;53.704;10.004;2022-11-15T10:37:15;15.40;;;12.05;;
45065;SDS011;30830;53.704;10.004;2022-11-15T10:42:41;19.48;;;12.60;;
45065;SDS011;30830;53.704;10.004;2022-11-15T10:45:27;15.23;;;12.43;;
45065;SDS011;30830;53.704;10.004;2022-11-15T10:48:18;16.45;;;11.38;;
45065;SDS011;30830;53.704;10.004;2022-11-15T10:50:43;13.18;;;10.82;;
45065;SDS011;30830;53.704;10.004;2022-11-15T10:53:21;15.75;;;11.55;;
45065;SDS011;30830;53.704;10.004;2022-11-15T10:55:55;13.95;;;10.95;;
45065;SDS011;30830;53.704;10.004;2022-11-15T11:03:36;13.77;;;10.48;;
45065;SDS011;30830;53.704;10.004;2022-11-15T11:06:07;12.35;;;11.05;;
45065;SDS011;30830;53.704;10.004;2022-11-15T11:08:33;11.75;;;10.18;;
45065;SDS011;30830;53.704;10.004;2022-11-15T11:10:59;16.60;;;11.10;;
45065;SDS011;30830;53.704;10.004;2022-11-15T11:13:27;13.93;;;11.45;;
45065;SDS011;30830;53.704;10.004;2022-11-15T11:16:41;15.13;;;10.80;;
45065;SDS011;30830;53.704;10.004;2022-11-15T11:25:30;16.98;;;10.88;;
45065;SDS011;30830;53.704;10.004;2022-11-15T11:38:38;14.77;;;11.45;;
45065;SDS011;30830;53.704;10.004;2022-11-15T11:47:30;15.20;;;10.40;;
45065;SDS011;30830;53.704;10.004;2022-11-15T11:50:00;12.82;;;9.60;;
45065;SDS011;30830;53.704;10.004;2022-11-15T11:52:54;14.13;;;9.93;;
45065;SDS011;30830;53.704;10.004;2022-11-15T12:03:54;11.45;;;9.05;;
45065;SDS011;30830;53.704;10.004;2022-11-15T12:12:18;12.02;;;8.75;;
45065;SDS011;30830;53.704;10.004;2022-11-15T12:17:28;13.90;;;8.65;;
45065;SDS011;30830;53.704;10.004;2022-11-15T12:19:57;10.32;;;8.73;;
45065;SDS011;30830;53.704;10.004;2022-11-15T12:22:42;12.32;;;8.88;;
45065;SDS011;30830;53.704;10.004;2022-11-15T12:31:01;14.27;;;9.75;;
45065;SDS011;30830;53.704;10.004;2022-11-15T12:33:39;20.05;;;12.25;;
45065;SDS011;30830;53.704;10.004;2022-11-15T12:36:10;22.58;;;14.25;;
45065;SDS011;30830;53.704;10.004;2022-11-15T12:38:55;18.08;;;10.23;;
45065;SDS011;30830;53.704;10.004;2022-11-15T12:41:23;13.38;;;9.38;;
45065;SDS011;30830;53.704;10.004;2022-11-15T12:43:58;10.85;;;8.93;;
45065;SDS011;30830;53.704;10.004;2022-11-15T12:48:57;13.48;;;8.95;;
45065;SDS011;30830;53.704;10.004;2022-11-15T12:59:48;10.35;;;8.40;;
45065;SDS011;30830;53.704;10.004;2022-11-15T13:02:39;12.35;;;9.18;;
45065;SDS011;30830;53.704;10.004;2022-11-15T13:17:46;10.57;;;8.30;;
45065;SDS011;30830;53.704;10.004;2022-11-15T13:27:58;11.18;;;8.65;;
45065;SDS011;30830;53.704;10.004;2022-11-15T13:30:26;11.07;;;8.05;;
45065;SDS011;30830;53.704;10.004;2022-11-15T13:32:54;10.65;;;8.13;;
45065;SDS011;30830;53.704;10.004;2022-11-15T13:35:24;13.25;;;9.27;;
45065;SDS011;30830;53.704;10.004;2022-11-15T13:37:52;12.23;;;8.77;;
45065;SDS011;30830;53.704;10.004;2022-11-15T13:42:44;12.13;;;9.02;;
45065;SDS011;30830;53.704;10.004;2022-11-15T13:45:12;11.23;;;8.65;;
45065;SDS011;30830;53.704;10.004;2022-11-15T13:47:40;10.10;;;7.90;;
45065;SDS011;30830;53.704;10.004;2022-11-15T13:50:05;10.10;;;8.27;;
45065;SDS011;30830;53.704;10.004;2022-11-15T13:52:35;11.05;;;8.82;;
45065;SDS011;30830;53.704;10.004;2022-11-15T13:57:42;10.90;;;8.48;;
45065;SDS011;30830;53.704;10.004;2022-11-15T14:00:30;10.68;;;8.75;;
45065;SDS011;30830;53.704;10.004;2022-11-15T14:03:22;8.10;;;7.15;;
45065;SDS011;30830;53.704;10.004;2022-11-15T14:08:37;8.70;;;7.53;;
45065;SDS011;30830;53.704;10.004;2022-11-15T14:11:07;9.32;;;8.05;;
45065;SDS011;30830;53.704;10.004;2022-11-15T14:16:36;10.57;;;7.28;;
45065;SDS011;30830;53.704;10.004;2022-11-15T14:19:11;10.95;;;8.15;;
45065;SDS011;30830;53.704;10.004;2022-11-15T14:22:14;10.10;;;8.15;;
45065;SDS011;30830;53.704;10.004;2022-11-15T14:27:30;9.50;;;8.10;;
45065;SDS011;30830;53.704;10.004;2022-11-15T14:29:56;14.13;;;9.27;;
45065;SDS011;30830;53.704;10.004;2022-11-15T14:34:49;11.48;;;7.82;;
45065;SDS011;30830;53.704;10.004;2022-11-15T14:37:22;9.82;;;7.38;;
45065;SDS011;30830;53.704;10.004;2022-11-15T14:39:50;11.27;;;8.23;;
45065;SDS011;30830;53.704;10.004;2022-11-15T14:42:16;9.60;;;7.47;;
45065;SDS011;30830;53.704;10.004;2022-11-15T14:44:42;10.35;;;7.75;;
45065;SDS011;30830;53.704;10.004;2022-11-15T14:47:07;11.48;;;7.78;;
45065;SDS011;30830;53.704;10.004;2022-11-15T14:49:33;11.00;;;8.27;;
45065;SDS011;30830;53.704;10.004;2022-11-15T14:54:26;9.02;;;7.38;;
45065;SDS011;30830;53.704;10.004;2022-11-15T14:56:52;9.20;;;7.53;;
45065;SDS011;30830;53.704;10.004;2022-11-15T14:59:17;11.95;;;8.27;;
45065;SDS011;30830;53.704;10.004;2022-11-15T15:01:43;11.73;;;8.75;;
45065;SDS011;30830;53.704;10.004;2022-11-15T15:04:09;10.57;;;7.25;;
45065;SDS011;30830;53.704;10.004;2022-11-15T15:06:35;10.75;;;8.27;;
45065;SDS011;30830;53.704;10.004;2022-11-15T15:09:01;9.57;;;7.60;;
45065;SDS011;30830;53.704;10.004;2022-11-15T15:11:28;12.88;;;9.00;;
45065;SDS011;30830;53.704;10.004;2022-11-15T15:13:55;11.43;;;8.68;;
45065;SDS011;30830;53.704;10.004;2022-11-15T15:16:23;9.15;;;7.72;;
45065;SDS011;30830;53.704;10.004;2022-11-15T15:18:49;10.27;;;7.95;;
45065;SDS011;30830;53.704;10.004;2022-11-15T15:23:48;10.85;;;7.65;;
45065;SDS011;30830;53.704;10.004;2022-11-15T15:26:13;9.23;;;7.75;;
45065;SDS011;30830;53.704;10.004;2022-11-15T15:28:39;10.25;;;8.30;;
45065;SDS011;30830;53.704;10.004;2022-11-15T15:31:05;10.15;;;8.80;;
45065;SDS011;30830;53.704;10.004;2022-11-15T15:33:31;12.40;;;7.78;;
45065;SDS011;30830;53.704;10.004;2022-11-15T15:35:57;10.57;;;7.75;;
45065;SDS011;30830;53.704;10.004;2022-11-15T15:38:23;12.30;;;8.30;;
45065;SDS011;30830;53.704;10.004;2022-11-15T15:40:48;9.25;;;7.90;;
45065;SDS011;30830;53.704;10.004;2022-11-15T15:43:14;9.05;;;7.95;;
45065;SDS011;30830;53.704;10.004;2022-11-15T15:45:40;8.88;;;7.45;;
45065;SDS011;30830;53.704;10.004;2022-11-15T15:48:13;11.70;;;8.30;;
45065;SDS011;30830;53.704;10.004;2022-11-15T15:50:41;10.10;;;8.30;;
45065;SDS011;30830;53.704;10.004;2022-11-15T15:53:10;9.25;;;7.68;;
45065;SDS011;30830;53.704;10.004;2022-11-15T15:55:37;9.35;;;7.78;;
45065;SDS011;30830;53.704;10.004;2022-11-15T15:58:03;8.63;;;7.60;;
45065;SDS011;30830;53.704;10.004;2022-11-15T16:00:29;11.45;;;8.30;;
45065;SDS011;30830;53.704;10.004;2022-11-15T16:02:58;8.80;;;7.47;;
45065;SDS011;30830;53.704;10.004;2022-11-15T16:05:24;11.93;;;8.30;;
45065;SDS011;30830;53.704;10.004;2022-11-15T16:07:49;11.68;;;8.45;;
45065;SDS011;30830;53.704;10.004;2022-11-15T16:12:49;10.10;;;7.70;;
45065;SDS011;30830;53.704;10.004;2022-11-15T16:15:15;9.10;;;7.68;;
45065;SDS011;30830;53.704;10.004;2022-11-15T16:17:43;11.52;;;8.38;;
45065;SDS011;30830;53.704;10.004;2022-11-15T16:22:48;12.23;;;9.10;;
45065;SDS011;30830;53.704;10.004;2022-11-15T16:25:14;10.00;;;7.88;;
45065;SDS011;30830;53.704;10.004;2022-11-15T16:27:39;14.50;;;11.48;;
45065;SDS011;30830;53.704;10.004;2022-11-15T16:30:14;13.77;;;10.05;;
45065;SDS011;30830;53.704;10.004;2022-11-15T16:32:40;14.80;;;10.00;;
45065;SDS011;30830;53.704;10.004;2022-11-15T16:35:07;13.05;;;11.60;;
45065;SDS011;30830;53.704;10.004;2022-11-15T16:37:36;12.32;;;9.43;;
45065;SDS011;30830;53.704;10.004;2022-11-15T16:40:02;11.30;;;9.38;;
45065;SDS011;30830;53.704;10.004;2022-11-15T16:42:27;12.05;;;8.75;;
45065;SDS011;30830;53.704;10.004;2022-11-15T16:44:53;9.85;;;8.85;;
45065;SDS011;30830;53.704;10.004;2022-11-15T16:47:18;12.82;;;9.30;;
45065;SDS011;30830;53.704;10.004;2022-11-15T16:49:44;14.07;;;8.88;;
45065;SDS011;30830;53.704;10.004;2022-11-15T16:52:10;11.93;;;9.65;;
45065;SDS011;30830;53.704;10.004;2022-11-15T16:54:35;10.52;;;9.05;;
45065;SDS011;30830;53.704;10.004;2022-11-15T16:57:01;13.05;;;9.65;;
45065;SDS011;30830;53.704;10.004;2022-11-15T16:59:27;11.70;;;8.68;;
45065;SDS011;30830;53.704;10.004;2022-11-15T17:01:54;12.05;;;9.82;;
45065;SDS011;30830;53.704;10.004;2022-11-15T17:04:20;9.57;;;8.48;;